Pagrindinis puslapis
METAR-TAF:

METAR-TAF

Oro uostai :

Džohor Baru, Malaizija

platuma: 01-38N, ilguma: 103-40E, Aukštis: 37 m

Dabartinis oras

Ataskaita buvo paskelbta 34 minutes, ne 01:00 UTC
Vėjas 1 kt nuo kintamojo kryptimis
Temperatūra 25°C
Drėgmė 89%
Slėgis 1009 hPa
Matomumas 10 km arba daugiau
Mažai debesys ne aukštis 1900 ft

METAR: WMKJ 260100Z VRB01KT 9999 FEW019 25/23 Q1009

Laikas: 09:34 (01:34 UTC)

Prognozė

Ataskaita buvo paskelbta 2 valandos ir 34 minutes, ne 23:00 UTC
Prognozė galioja nuo 26 metu 00 UTC su 27 metu 00 UTC
Vėjas 3 kt nuo kintamojo kryptimis
Matomumas 10 km arba daugiau
Mažai debesys ne aukštis 1800 ft

TAF: WMKJ 252300Z 2600/2700 VRB03KT 9999 FEW018

Orai ataskaitas ir orų prognozės (METAR, TAF).

turimą stotys yra geltonos ir raudonos taškus žemėlapyje.

Perkelti pele per norėdami pamatyti stoties vardą.

Tada spustelėkite, norėdami matyti oro stebėjimo ir prognozės.

Norėdami pakeisti žemėlapį: spustelėkite ant žalios mygtukų su juodo kryžiaus žemyn,; žalią mygtuką su brūkšneliu, jei norite nutolinti; arba žalių rodyklių gretimoms žemėlapius.


METAR-TAF: